AFR1476 LFPG-LEBB
Flight info
| Callsign | AFR1476 |
|---|---|
| Flight time | 1h 25m |
| Altitude | 23000 |
| Route | AGOPA DCT ARKIP DCT ARMAL DCT ARTAX DCT BEBIX DCT LMG DCT UVELI DCT OSMOB DCT VAVIX DCT BTZ DCT URUNA P181 SSN L176 CEGAM |
| Aircraft | E190/M-SDE3GILORVW/S |
Departure
| Time | 2026-05-07 15:37 |
|---|---|
| Airport | Charles de Gaulle International Airport (LFPG) |
Arrival
| Time | 2026-05-07 17:02 |
|---|---|
| Airport | Bilbao Airport (LEBB) |
| Time | Latitude | Longitude | Altitude | Speed | Heading |
|---|---|---|---|---|---|
| 2026-05-07 15:12 | 49.00480 | 2.55719 | 336 ft | 0 kts | 11° |
| 2026-05-07 15:27 | 49.00474 | 2.55717 | 336 ft | 2 kts | 6° |
| 2026-05-07 15:27 | 49.00459 | 2.55715 | 336 ft | 2 kts | 4° |
| 2026-05-07 15:28 | 49.00444 | 2.55715 | 336 ft | 2 kts | 357° |
| 2026-05-07 15:28 | 49.00435 | 2.55716 | 336 ft | 1 kts | 354° |
| 2026-05-07 15:28 | 49.00440 | 2.55714 | 336 ft | 2 kts | 334° |
| 2026-05-07 15:28 | 49.00449 | 2.55688 | 336 ft | 2 kts | 271° |
| 2026-05-07 15:29 | 49.00447 | 2.55669 | 336 ft | 0 kts | 263° |
| 2026-05-07 15:33 | 49.00446 | 2.55659 | 336 ft | 3 kts | 263° |
| 2026-05-07 15:33 | 49.00442 | 2.55589 | 336 ft | 8 kts | 265° |
| 2026-05-07 15:33 | 49.00420 | 2.55502 | 336 ft | 9 kts | 213° |
| 2026-05-07 15:34 | 49.00355 | 2.55460 | 336 ft | 11 kts | 240° |
| 2026-05-07 15:34 | 49.00288 | 2.55400 | 335 ft | 14 kts | 171° |
| 2026-05-07 15:34 | 49.00181 | 2.55446 | 333 ft | 17 kts | 163° |
| 2026-05-07 15:34 | 49.00058 | 2.55500 | 332 ft | 18 kts | 165° |
| 2026-05-07 15:35 | 48.99930 | 2.55557 | 331 ft | 19 kts | 157° |
| 2026-05-07 15:35 | 48.99841 | 2.55703 | 329 ft | 19 kts | 108° |
| 2026-05-07 15:35 | 48.99781 | 2.55800 | 329 ft | 11 kts | 168° |
| 2026-05-07 15:35 | 48.99703 | 2.55813 | 329 ft | 11 kts | 175° |
| 2026-05-07 15:36 | 48.99623 | 2.55836 | 328 ft | 12 kts | 140° |
| 2026-05-07 15:36 | 48.99604 | 2.55928 | 328 ft | 0 kts | 86° |
| 2026-05-07 15:36 | 48.99607 | 2.56008 | 328 ft | 37 kts | 86° |
| 2026-05-07 15:37 | 48.99651 | 2.56847 | 326 ft | 120 kts | 86° |
| 2026-05-07 15:37 | 48.99738 | 2.58405 | 536 ft | 164 kts | 88° |
| 2026-05-07 15:37 | 48.99762 | 2.60257 | 1025 ft | 188 kts | 87° |
| 2026-05-07 15:37 | 48.99937 | 2.62359 | 1246 ft | 212 kts | 79° |
| 2026-05-07 15:38 | 49.00235 | 2.64627 | 1713 ft | 225 kts | 77° |
| 2026-05-07 15:38 | 49.00629 | 2.67014 | 2165 ft | 243 kts | 74° |
| 2026-05-07 15:38 | 49.01135 | 2.69583 | 2605 ft | 263 kts | 72° |
| 2026-05-07 15:38 | 49.01739 | 2.72262 | 3336 ft | 270 kts | 71° |
| 2026-05-07 15:39 | 49.01926 | 2.74967 | 4436 ft | 263 kts | 102° |
| 2026-05-07 15:39 | 49.01296 | 2.77559 | 5358 ft | 263 kts | 111° |
| 2026-05-07 15:39 | 49.00721 | 2.80172 | 6211 ft | 267 kts | 106° |
| 2026-05-07 15:39 | 49.00281 | 2.82923 | 7038 ft | 273 kts | 102° |
| 2026-05-07 15:40 | 48.99918 | 2.85769 | 7839 ft | 279 kts | 101° |
| 2026-05-07 15:40 | 48.99388 | 2.88621 | 8613 ft | 285 kts | 122° |
| 2026-05-07 15:40 | 48.97993 | 2.90676 | 9382 ft | 288 kts | 155° |
| 2026-05-07 15:40 | 48.96063 | 2.91254 | 10178 ft | 288 kts | 189° |
| 2026-05-07 15:41 | 48.94528 | 2.90142 | 12312 ft | 228 kts | 220° |
| 2026-05-07 15:41 | 48.93598 | 2.88839 | 14004 ft | 178 kts | 227° |
| 2026-05-07 15:41 | 48.92707 | 2.87436 | 14250 ft | 187 kts | 226° |
| 2026-05-07 15:41 | 48.91810 | 2.86072 | 14059 ft | 186 kts | 226° |
| 2026-05-07 15:42 | 48.90756 | 2.84587 | 13909 ft | 224 kts | 221° |
| 2026-05-07 15:42 | 48.89463 | 2.83008 | 13911 ft | 257 kts | 214° |
| 2026-05-07 15:42 | 48.87839 | 2.81799 | 14598 ft | 258 kts | 202° |
| 2026-05-07 15:42 | 48.86311 | 2.80571 | 15340 ft | 255 kts | 221° |
| 2026-05-07 15:43 | 48.85350 | 2.78392 | 16231 ft | 248 kts | 256° |
| 2026-05-07 15:43 | 48.85332 | 2.75844 | 16946 ft | 249 kts | 288° |
| 2026-05-07 15:43 | 48.86263 | 2.73621 | 17571 ft | 258 kts | 317° |
| 2026-05-07 15:43 | 48.87885 | 2.72188 | 17649 ft | 288 kts | 332° |
| 2026-05-07 15:44 | 48.89463 | 2.70182 | 17754 ft | 309 kts | 302° |
| 2026-05-07 15:44 | 48.90201 | 2.67044 | 17880 ft | 331 kts | 274° |
| 2026-05-07 15:44 | 48.89815 | 2.63560 | 18226 ft | 346 kts | 245° |
| 2026-05-07 15:44 | 48.88403 | 2.60601 | 18920 ft | 353 kts | 221° |
| 2026-05-07 15:45 | 48.86443 | 2.58318 | 19794 ft | 353 kts | 221° |
| 2026-05-07 15:45 | 48.84625 | 2.55915 | 20632 ft | 353 kts | 224° |
| 2026-05-07 15:45 | 48.82825 | 2.53368 | 21419 ft | 354 kts | 225° |
| 2026-05-07 15:45 | 48.81040 | 2.50774 | 22132 ft | 358 kts | 225° |
| 2026-05-07 15:46 | 48.77438 | 2.45491 | 22989 ft | 368 kts | 226° |
| 2026-05-07 15:46 | 48.75539 | 2.42695 | 23029 ft | 388 kts | 225° |
| 2026-05-07 15:46 | 48.73582 | 2.39838 | 23017 ft | 393 kts | 223° |
| 2026-05-07 15:47 | 48.71336 | 2.37494 | 23027 ft | 394 kts | 213° |
| 2026-05-07 15:47 | 48.68985 | 2.35354 | 23014 ft | 393 kts | 213° |
| 2026-05-07 15:47 | 48.66633 | 2.33229 | 23015 ft | 393 kts | 212° |
| 2026-05-07 15:47 | 48.64281 | 2.31113 | 23015 ft | 393 kts | 212° |
| 2026-05-07 15:48 | 48.61940 | 2.29005 | 23015 ft | 393 kts | 212° |
| 2026-05-07 15:48 | 48.59568 | 2.26873 | 23015 ft | 393 kts | 212° |
| 2026-05-07 15:48 | 48.57223 | 2.24767 | 23014 ft | 393 kts | 212° |
| 2026-05-07 15:48 | 48.54879 | 2.22666 | 23014 ft | 393 kts | 212° |
| 2026-05-07 15:49 | 48.52512 | 2.20546 | 23010 ft | 394 kts | 212° |
| 2026-05-07 15:49 | 48.50178 | 2.18468 | 23006 ft | 393 kts | 211° |
| 2026-05-07 15:49 | 48.47797 | 2.16375 | 23001 ft | 393 kts | 211° |
| 2026-05-07 15:49 | 48.45451 | 2.14315 | 23001 ft | 392 kts | 211° |
| 2026-05-07 15:50 | 48.43109 | 2.12260 | 23003 ft | 392 kts | 211° |
| 2026-05-07 15:50 | 48.40738 | 2.10182 | 22999 ft | 392 kts | 212° |
| 2026-05-07 15:50 | 48.38399 | 2.08135 | 22996 ft | 392 kts | 212° |
| 2026-05-07 15:50 | 48.36040 | 2.06071 | 22998 ft | 391 kts | 212° |
| 2026-05-07 15:51 | 48.33690 | 2.04019 | 22997 ft | 392 kts | 212° |
| 2026-05-07 15:51 | 48.31301 | 2.01968 | 22996 ft | 392 kts | 208° |
| 2026-05-07 15:51 | 48.28716 | 2.00680 | 22993 ft | 395 kts | 189° |
| 2026-05-07 15:51 | 48.26018 | 2.00526 | 23002 ft | 387 kts | 182° |
| 2026-05-07 15:52 | 48.23325 | 2.00559 | 22993 ft | 385 kts | 181° |
| 2026-05-07 15:52 | 48.20660 | 2.00621 | 22994 ft | 385 kts | 181° |
| 2026-05-07 15:52 | 48.17984 | 2.00693 | 22994 ft | 386 kts | 181° |
| 2026-05-07 15:52 | 48.15317 | 2.00767 | 22989 ft | 386 kts | 181° |
| 2026-05-07 15:53 | 48.12613 | 2.00845 | 22991 ft | 386 kts | 181° |
| 2026-05-07 15:53 | 48.09952 | 2.00922 | 22993 ft | 386 kts | 181° |
| 2026-05-07 15:53 | 48.07227 | 2.01033 | 23005 ft | 393 kts | 180° |
| 2026-05-07 15:53 | 48.04475 | 2.01199 | 23002 ft | 398 kts | 180° |
| 2026-05-07 15:54 | 48.01714 | 2.01364 | 22989 ft | 398 kts | 180° |
| 2026-05-07 15:54 | 47.98957 | 2.01529 | 22999 ft | 399 kts | 180° |
| 2026-05-07 15:54 | 47.96203 | 2.01693 | 23002 ft | 399 kts | 180° |
| 2026-05-07 15:54 | 47.93414 | 2.01859 | 22997 ft | 399 kts | 180° |
| 2026-05-07 15:55 | 47.90625 | 2.02025 | 23000 ft | 400 kts | 180° |
| 2026-05-07 15:55 | 47.87866 | 2.02188 | 23001 ft | 399 kts | 180° |
| 2026-05-07 15:55 | 47.85079 | 2.02353 | 23000 ft | 399 kts | 180° |
| 2026-05-07 15:55 | 47.82303 | 2.02517 | 22994 ft | 399 kts | 180° |
| 2026-05-07 15:56 | 47.79538 | 2.02681 | 22993 ft | 398 kts | 180° |
| 2026-05-07 15:56 | 47.76781 | 2.02844 | 22990 ft | 399 kts | 180° |
| 2026-05-07 15:56 | 47.74002 | 2.03008 | 22988 ft | 398 kts | 180° |
| 2026-05-07 15:56 | 47.71241 | 2.03170 | 22987 ft | 398 kts | 180° |
| 2026-05-07 15:57 | 47.68474 | 2.03334 | 22979 ft | 398 kts | 180° |
| 2026-05-07 15:57 | 47.65694 | 2.03498 | 22978 ft | 397 kts | 180° |
| 2026-05-07 15:57 | 47.62939 | 2.03659 | 22978 ft | 397 kts | 180° |
| 2026-05-07 15:57 | 47.60191 | 2.03817 | 22977 ft | 397 kts | 180° |
| 2026-05-07 15:58 | 47.57421 | 2.03975 | 22972 ft | 396 kts | 180° |
| 2026-05-07 15:58 | 47.54684 | 2.04132 | 22971 ft | 396 kts | 180° |
| 2026-05-07 15:58 | 47.51894 | 2.04291 | 22972 ft | 396 kts | 180° |
| 2026-05-07 15:58 | 47.49150 | 2.04446 | 22970 ft | 396 kts | 180° |
| 2026-05-07 15:59 | 47.46382 | 2.04604 | 22972 ft | 396 kts | 180° |
| 2026-05-07 15:59 | 47.43634 | 2.04760 | 22971 ft | 396 kts | 180° |
| 2026-05-07 15:59 | 47.40904 | 2.04916 | 22969 ft | 396 kts | 180° |
| 2026-05-07 15:59 | 47.38148 | 2.05072 | 22963 ft | 396 kts | 179° |
| 2026-05-07 16:00 | 47.35377 | 2.05230 | 22965 ft | 396 kts | 180° |
| 2026-05-07 16:00 | 47.32645 | 2.04927 | 22976 ft | 393 kts | 191° |
| 2026-05-07 16:00 | 47.29956 | 2.04254 | 22966 ft | 393 kts | 191° |
| 2026-05-07 16:00 | 47.27242 | 2.03568 | 22959 ft | 393 kts | 191° |
| 2026-05-07 16:01 | 47.24540 | 2.02884 | 22960 ft | 393 kts | 191° |
| 2026-05-07 16:01 | 47.21865 | 2.02208 | 22960 ft | 393 kts | 191° |
| 2026-05-07 16:01 | 47.19169 | 2.01527 | 22961 ft | 393 kts | 191° |
| 2026-05-07 16:01 | 47.16490 | 2.00850 | 22955 ft | 392 kts | 191° |
| 2026-05-07 16:02 | 47.13779 | 2.00167 | 22953 ft | 392 kts | 191° |
| 2026-05-07 16:02 | 47.11087 | 1.99488 | 22953 ft | 392 kts | 191° |
| 2026-05-07 16:02 | 47.08397 | 1.98811 | 22954 ft | 392 kts | 191° |
| 2026-05-07 16:02 | 47.05732 | 1.98141 | 22956 ft | 392 kts | 191° |
| 2026-05-07 16:03 | 47.03028 | 1.97462 | 22953 ft | 392 kts | 191° |
| 2026-05-07 16:03 | 47.00362 | 1.96792 | 22953 ft | 392 kts | 191° |
| 2026-05-07 16:03 | 46.97637 | 1.96108 | 22952 ft | 392 kts | 191° |
| 2026-05-07 16:03 | 46.94977 | 1.95432 | 22955 ft | 392 kts | 191° |
| 2026-05-07 16:04 | 46.92274 | 1.94762 | 22956 ft | 392 kts | 191° |
| 2026-05-07 16:04 | 46.89602 | 1.94097 | 22955 ft | 392 kts | 191° |
| 2026-05-07 16:04 | 46.86887 | 1.93420 | 22964 ft | 391 kts | 191° |
| 2026-05-07 16:04 | 46.84175 | 1.92743 | 22965 ft | 391 kts | 191° |
| 2026-05-07 16:05 | 46.81490 | 1.92074 | 22962 ft | 391 kts | 191° |
| 2026-05-07 16:05 | 46.78821 | 1.91410 | 22963 ft | 391 kts | 191° |
| 2026-05-07 16:05 | 46.76114 | 1.90738 | 22962 ft | 391 kts | 191° |
| 2026-05-07 16:05 | 46.73450 | 1.90075 | 22962 ft | 391 kts | 191° |
| 2026-05-07 16:06 | 46.70731 | 1.89401 | 22957 ft | 391 kts | 191° |
| 2026-05-07 16:06 | 46.68039 | 1.88762 | 22957 ft | 390 kts | 188° |
| 2026-05-07 16:06 | 46.65369 | 1.88096 | 22961 ft | 390 kts | 191° |
| 2026-05-07 16:06 | 46.62709 | 1.87421 | 22957 ft | 390 kts | 191° |
| 2026-05-07 16:07 | 46.60006 | 1.86746 | 22955 ft | 390 kts | 191° |
| 2026-05-07 16:07 | 46.57324 | 1.86082 | 22958 ft | 391 kts | 191° |
| 2026-05-07 16:07 | 46.54651 | 1.85421 | 22961 ft | 391 kts | 191° |
| 2026-05-07 16:07 | 46.51974 | 1.84760 | 22963 ft | 391 kts | 191° |
| 2026-05-07 16:08 | 46.49303 | 1.84103 | 22965 ft | 391 kts | 191° |
| 2026-05-07 16:08 | 46.46643 | 1.83448 | 22963 ft | 391 kts | 191° |
| 2026-05-07 16:08 | 46.43957 | 1.82788 | 22962 ft | 391 kts | 191° |
| 2026-05-07 16:08 | 46.41278 | 1.82131 | 22957 ft | 391 kts | 191° |
| 2026-05-07 16:09 | 46.38578 | 1.81469 | 22958 ft | 390 kts | 191° |
| 2026-05-07 16:09 | 46.35915 | 1.80817 | 22959 ft | 390 kts | 191° |
| 2026-05-07 16:09 | 46.33245 | 1.80163 | 22954 ft | 390 kts | 190° |
| 2026-05-07 16:09 | 46.30581 | 1.79512 | 22954 ft | 390 kts | 190° |
| 2026-05-07 16:10 | 46.27915 | 1.78859 | 22955 ft | 390 kts | 191° |
| 2026-05-07 16:10 | 46.25369 | 1.77528 | 22963 ft | 389 kts | 212° |
| 2026-05-07 16:10 | 46.23217 | 1.75110 | 22974 ft | 390 kts | 220° |
| 2026-05-07 16:10 | 46.21183 | 1.72599 | 22957 ft | 390 kts | 220° |
| 2026-05-07 16:11 | 46.19112 | 1.70023 | 22949 ft | 390 kts | 220° |
| 2026-05-07 16:11 | 46.17066 | 1.67473 | 22954 ft | 389 kts | 221° |
| 2026-05-07 16:11 | 46.15018 | 1.64918 | 22953 ft | 390 kts | 221° |
| 2026-05-07 16:11 | 46.12954 | 1.62346 | 22951 ft | 390 kts | 221° |
| 2026-05-07 16:12 | 46.10928 | 1.59823 | 22953 ft | 390 kts | 221° |
| 2026-05-07 16:12 | 46.08857 | 1.57248 | 22948 ft | 390 kts | 221° |
| 2026-05-07 16:12 | 46.06825 | 1.54724 | 22947 ft | 391 kts | 220° |
| 2026-05-07 16:12 | 46.04756 | 1.52155 | 22944 ft | 390 kts | 221° |
| 2026-05-07 16:13 | 46.02692 | 1.49595 | 22945 ft | 390 kts | 221° |
| 2026-05-07 16:13 | 46.00638 | 1.47050 | 22939 ft | 390 kts | 220° |
| 2026-05-07 16:13 | 45.98574 | 1.44496 | 22942 ft | 389 kts | 220° |
| 2026-05-07 16:13 | 45.96532 | 1.41972 | 22944 ft | 389 kts | 221° |
| 2026-05-07 16:14 | 45.94721 | 1.39152 | 22941 ft | 390 kts | 238° |
| 2026-05-07 16:14 | 45.93413 | 1.35683 | 22958 ft | 392 kts | 242° |
| 2026-05-07 16:14 | 45.92179 | 1.32232 | 22942 ft | 391 kts | 242° |
| 2026-05-07 16:14 | 45.90999 | 1.28916 | 22949 ft | 391 kts | 242° |
| 2026-05-07 16:15 | 45.89742 | 1.25383 | 22956 ft | 391 kts | 242° |
| 2026-05-07 16:15 | 45.88500 | 1.21890 | 22956 ft | 392 kts | 242° |
| 2026-05-07 16:15 | 45.87266 | 1.18429 | 22955 ft | 392 kts | 242° |
| 2026-05-07 16:15 | 45.86012 | 1.14914 | 22958 ft | 392 kts | 242° |
| 2026-05-07 16:16 | 45.84771 | 1.11440 | 22959 ft | 392 kts | 242° |
| 2026-05-07 16:16 | 45.83535 | 1.07986 | 22960 ft | 392 kts | 242° |
| 2026-05-07 16:16 | 45.82279 | 1.04488 | 22953 ft | 391 kts | 240° |
| 2026-05-07 16:16 | 45.80612 | 1.01478 | 22955 ft | 389 kts | 222° |
| 2026-05-07 16:17 | 45.78543 | 0.98922 | 22955 ft | 390 kts | 220° |
| 2026-05-07 16:17 | 45.76494 | 0.96450 | 22947 ft | 389 kts | 220° |
| 2026-05-07 16:17 | 45.74423 | 0.93963 | 22936 ft | 388 kts | 220° |
| 2026-05-07 16:17 | 45.72355 | 0.91487 | 22937 ft | 388 kts | 220° |
| 2026-05-07 16:18 | 45.70285 | 0.89013 | 22939 ft | 388 kts | 220° |
| 2026-05-07 16:18 | 45.68203 | 0.86525 | 22931 ft | 388 kts | 220° |
| 2026-05-07 16:18 | 45.66140 | 0.84062 | 22936 ft | 387 kts | 220° |
| 2026-05-07 16:18 | 45.64063 | 0.81587 | 22935 ft | 388 kts | 220° |
| 2026-05-07 16:19 | 45.62009 | 0.79141 | 22932 ft | 387 kts | 220° |
| 2026-05-07 16:19 | 45.59929 | 0.76664 | 22929 ft | 387 kts | 220° |
| 2026-05-07 16:19 | 45.57864 | 0.74210 | 22926 ft | 387 kts | 220° |
| 2026-05-07 16:19 | 45.55795 | 0.71754 | 22931 ft | 388 kts | 220° |
| 2026-05-07 16:20 | 45.53721 | 0.69294 | 22922 ft | 388 kts | 220° |
| 2026-05-07 16:20 | 45.51631 | 0.66818 | 22924 ft | 387 kts | 220° |
| 2026-05-07 16:20 | 45.49548 | 0.64351 | 22921 ft | 387 kts | 220° |
| 2026-05-07 16:20 | 45.47476 | 0.61900 | 22922 ft | 387 kts | 220° |
| 2026-05-07 16:21 | 45.45410 | 0.59457 | 22918 ft | 387 kts | 220° |
| 2026-05-07 16:21 | 45.43343 | 0.57018 | 22918 ft | 387 kts | 220° |
| 2026-05-07 16:21 | 45.41272 | 0.54577 | 22918 ft | 387 kts | 220° |
| 2026-05-07 16:21 | 45.39198 | 0.52134 | 22920 ft | 387 kts | 220° |
| 2026-05-07 16:22 | 45.37124 | 0.49694 | 22916 ft | 386 kts | 220° |
| 2026-05-07 16:22 | 45.35053 | 0.47259 | 22924 ft | 386 kts | 220° |
| 2026-05-07 16:22 | 45.32995 | 0.44841 | 22930 ft | 386 kts | 220° |
| 2026-05-07 16:22 | 45.30906 | 0.42390 | 22932 ft | 386 kts | 220° |
| 2026-05-07 16:23 | 45.28834 | 0.39962 | 22939 ft | 386 kts | 220° |
| 2026-05-07 16:23 | 45.26761 | 0.37532 | 22935 ft | 386 kts | 220° |
| 2026-05-07 16:23 | 45.24690 | 0.35110 | 22936 ft | 386 kts | 220° |
| 2026-05-07 16:23 | 45.22630 | 0.32702 | 22936 ft | 385 kts | 219° |
| 2026-05-07 16:24 | 45.20548 | 0.30271 | 22932 ft | 385 kts | 219° |
| 2026-05-07 16:24 | 45.18466 | 0.27842 | 22928 ft | 386 kts | 219° |
| 2026-05-07 16:24 | 45.16413 | 0.25451 | 22922 ft | 385 kts | 219° |
| 2026-05-07 16:24 | 45.14330 | 0.23025 | 22920 ft | 385 kts | 219° |
| 2026-05-07 16:25 | 45.12257 | 0.20614 | 22918 ft | 385 kts | 219° |
| 2026-05-07 16:25 | 45.10187 | 0.18209 | 22918 ft | 385 kts | 219° |
| 2026-05-07 16:25 | 45.08129 | 0.15819 | 22915 ft | 384 kts | 219° |
| 2026-05-07 16:25 | 45.06063 | 0.13423 | 22911 ft | 385 kts | 219° |
| 2026-05-07 16:26 | 45.03983 | 0.11014 | 22908 ft | 385 kts | 219° |
| 2026-05-07 16:26 | 45.01927 | 0.08634 | 22909 ft | 385 kts | 219° |
| 2026-05-07 16:26 | 44.99844 | 0.06225 | 22906 ft | 385 kts | 219° |
| 2026-05-07 16:26 | 44.97778 | 0.03838 | 22905 ft | 385 kts | 219° |
| 2026-05-07 16:27 | 44.95699 | 0.01439 | 22907 ft | 384 kts | 219° |
| 2026-05-07 16:27 | 44.93616 | -0.00963 | 22912 ft | 385 kts | 219° |
| 2026-05-07 16:27 | 44.91544 | -0.03349 | 22917 ft | 385 kts | 219° |
| 2026-05-07 16:27 | 44.89470 | -0.05737 | 22925 ft | 385 kts | 220° |
| 2026-05-07 16:28 | 44.87419 | -0.08095 | 22925 ft | 385 kts | 220° |
| 2026-05-07 16:28 | 44.85306 | -0.10522 | 22926 ft | 385 kts | 220° |
| 2026-05-07 16:28 | 44.83297 | -0.12827 | 22923 ft | 384 kts | 220° |
| 2026-05-07 16:28 | 44.81201 | -0.15230 | 22925 ft | 385 kts | 219° |
| 2026-05-07 16:29 | 44.79145 | -0.17583 | 22925 ft | 385 kts | 220° |
| 2026-05-07 16:29 | 44.77064 | -0.19965 | 22923 ft | 385 kts | 219° |
| 2026-05-07 16:29 | 44.74981 | -0.22346 | 22923 ft | 384 kts | 219° |
| 2026-05-07 16:29 | 44.72926 | -0.24693 | 22925 ft | 384 kts | 219° |
| 2026-05-07 16:30 | 44.70831 | -0.27084 | 22924 ft | 384 kts | 219° |
| 2026-05-07 16:30 | 44.68748 | -0.29458 | 22924 ft | 384 kts | 219° |
| 2026-05-07 16:30 | 44.66666 | -0.31829 | 22925 ft | 385 kts | 219° |
| 2026-05-07 16:30 | 44.64578 | -0.34167 | 22918 ft | 384 kts | 216° |
| 2026-05-07 16:31 | 44.62362 | -0.36299 | 22924 ft | 384 kts | 215° |
| 2026-05-07 16:31 | 44.60178 | -0.38395 | 22922 ft | 385 kts | 215° |
| 2026-05-07 16:31 | 44.57958 | -0.40531 | 22920 ft | 384 kts | 216° |
| 2026-05-07 16:31 | 44.55756 | -0.42651 | 22921 ft | 383 kts | 216° |
| 2026-05-07 16:32 | 44.53530 | -0.44791 | 22920 ft | 384 kts | 216° |
| 2026-05-07 16:32 | 44.51346 | -0.46889 | 22921 ft | 384 kts | 216° |
| 2026-05-07 16:32 | 44.49131 | -0.49014 | 22921 ft | 384 kts | 216° |
| 2026-05-07 16:32 | 44.46928 | -0.51126 | 22923 ft | 384 kts | 216° |
| 2026-05-07 16:33 | 44.44741 | -0.53221 | 22922 ft | 384 kts | 216° |
| 2026-05-07 16:33 | 44.42527 | -0.55340 | 22920 ft | 384 kts | 215° |
| 2026-05-07 16:33 | 44.40317 | -0.57453 | 22917 ft | 384 kts | 216° |
| 2026-05-07 16:33 | 44.38115 | -0.59556 | 22914 ft | 384 kts | 216° |
| 2026-05-07 16:34 | 44.35930 | -0.61642 | 22910 ft | 383 kts | 216° |
| 2026-05-07 16:34 | 44.33718 | -0.63751 | 22910 ft | 383 kts | 216° |
| 2026-05-07 16:34 | 44.31512 | -0.65853 | 22911 ft | 384 kts | 215° |
| 2026-05-07 16:34 | 44.29302 | -0.67956 | 22912 ft | 384 kts | 215° |
| 2026-05-07 16:35 | 44.27115 | -0.70082 | 22907 ft | 383 kts | 217° |
| 2026-05-07 16:35 | 44.24984 | -0.72263 | 22908 ft | 383 kts | 217° |
| 2026-05-07 16:35 | 44.22838 | -0.74456 | 22908 ft | 383 kts | 217° |
| 2026-05-07 16:35 | 44.20683 | -0.76656 | 22903 ft | 383 kts | 217° |
| 2026-05-07 16:36 | 44.18542 | -0.78841 | 22904 ft | 383 kts | 217° |
| 2026-05-07 16:36 | 44.16380 | -0.81045 | 22903 ft | 383 kts | 217° |
| 2026-05-07 16:36 | 44.14248 | -0.83215 | 22905 ft | 383 kts | 217° |
| 2026-05-07 16:36 | 44.12084 | -0.85417 | 22902 ft | 382 kts | 217° |
| 2026-05-07 16:37 | 44.09940 | -0.87595 | 22898 ft | 382 kts | 217° |
| 2026-05-07 16:37 | 44.07797 | -0.89770 | 22894 ft | 382 kts | 217° |
| 2026-05-07 16:37 | 44.05656 | -0.91943 | 22896 ft | 383 kts | 217° |
| 2026-05-07 16:37 | 44.03508 | -0.94120 | 22897 ft | 382 kts | 217° |
| 2026-05-07 16:38 | 44.01344 | -0.96312 | 22891 ft | 382 kts | 217° |
| 2026-05-07 16:38 | 43.99212 | -0.98467 | 22887 ft | 382 kts | 217° |
| 2026-05-07 16:38 | 43.97046 | -1.00658 | 22893 ft | 382 kts | 217° |
| 2026-05-07 16:38 | 43.94917 | -1.02809 | 22889 ft | 382 kts | 217° |
| 2026-05-07 16:39 | 43.92749 | -1.04997 | 22888 ft | 382 kts | 217° |
| 2026-05-07 16:39 | 43.90615 | -1.07148 | 22884 ft | 383 kts | 217° |
| 2026-05-07 16:39 | 43.88452 | -1.09326 | 22892 ft | 382 kts | 217° |
| 2026-05-07 16:39 | 43.86303 | -1.11489 | 22893 ft | 382 kts | 217° |
| 2026-05-07 16:40 | 43.84143 | -1.13660 | 22893 ft | 383 kts | 217° |
| 2026-05-07 16:40 | 43.81984 | -1.15828 | 22896 ft | 382 kts | 217° |
| 2026-05-07 16:40 | 43.79844 | -1.17975 | 22893 ft | 382 kts | 217° |
| 2026-05-07 16:40 | 43.77683 | -1.20142 | 22898 ft | 382 kts | 217° |
| 2026-05-07 16:41 | 43.75539 | -1.22289 | 22898 ft | 382 kts | 217° |
| 2026-05-07 16:41 | 43.73406 | -1.24424 | 22901 ft | 382 kts | 217° |
| 2026-05-07 16:41 | 43.71239 | -1.26590 | 22902 ft | 382 kts | 217° |
| 2026-05-07 16:41 | 43.69085 | -1.28743 | 22902 ft | 383 kts | 217° |
| 2026-05-07 16:42 | 43.66929 | -1.30894 | 22902 ft | 382 kts | 217° |
| 2026-05-07 16:42 | 43.64800 | -1.33017 | 22894 ft | 373 kts | 217° |
| 2026-05-07 16:42 | 43.62706 | -1.35103 | 22899 ft | 368 kts | 217° |
| 2026-05-07 16:42 | 43.60635 | -1.37165 | 22906 ft | 368 kts | 217° |
| 2026-05-07 16:43 | 43.58586 | -1.39203 | 22910 ft | 368 kts | 217° |
| 2026-05-07 16:43 | 43.56487 | -1.41288 | 22904 ft | 368 kts | 217° |
| 2026-05-07 16:43 | 43.54423 | -1.43338 | 22907 ft | 369 kts | 217° |
| 2026-05-07 16:43 | 43.52325 | -1.45418 | 22903 ft | 363 kts | 217° |
| 2026-05-07 16:44 | 43.50337 | -1.47389 | 22832 ft | 342 kts | 217° |
| 2026-05-07 16:44 | 43.48459 | -1.49249 | 22677 ft | 324 kts | 217° |
| 2026-05-07 16:44 | 43.46754 | -1.51098 | 22445 ft | 310 kts | 230° |
| 2026-05-07 16:44 | 43.45505 | -1.53464 | 22159 ft | 299 kts | 236° |
| 2026-05-07 16:45 | 43.44373 | -1.55779 | 21839 ft | 290 kts | 236° |
| 2026-05-07 16:45 | 43.43267 | -1.58052 | 21484 ft | 282 kts | 236° |
| 2026-05-07 16:45 | 43.42182 | -1.60286 | 21101 ft | 277 kts | 236° |
| 2026-05-07 16:45 | 43.41127 | -1.62458 | 20699 ft | 272 kts | 236° |
| 2026-05-07 16:46 | 43.40082 | -1.64610 | 20285 ft | 269 kts | 236° |
| 2026-05-07 16:46 | 43.39050 | -1.66730 | 19868 ft | 266 kts | 235° |
| 2026-05-07 16:46 | 43.38035 | -1.68820 | 19447 ft | 264 kts | 236° |
| 2026-05-07 16:46 | 43.37024 | -1.70896 | 19022 ft | 262 kts | 235° |
| 2026-05-07 16:47 | 43.36008 | -1.72982 | 18594 ft | 260 kts | 236° |
| 2026-05-07 16:47 | 43.35016 | -1.75024 | 18171 ft | 258 kts | 236° |
| 2026-05-07 16:47 | 43.34023 | -1.77070 | 17754 ft | 257 kts | 236° |
| 2026-05-07 16:47 | 43.33046 | -1.79079 | 17343 ft | 256 kts | 236° |
| 2026-05-07 16:48 | 43.32061 | -1.81105 | 16932 ft | 254 kts | 236° |
| 2026-05-07 16:48 | 43.31043 | -1.83071 | 16514 ft | 253 kts | 226° |
| 2026-05-07 16:48 | 43.29761 | -1.84730 | 16099 ft | 252 kts | 223° |
| 2026-05-07 16:48 | 43.28488 | -1.86320 | 15701 ft | 251 kts | 223° |
| 2026-05-07 16:49 | 43.27192 | -1.87936 | 15295 ft | 250 kts | 222° |
| 2026-05-07 16:49 | 43.25917 | -1.89523 | 14903 ft | 249 kts | 223° |
| 2026-05-07 16:49 | 43.24632 | -1.91124 | 14511 ft | 248 kts | 222° |
| 2026-05-07 16:49 | 43.23377 | -1.92687 | 14128 ft | 246 kts | 222° |
| 2026-05-07 16:50 | 43.22106 | -1.94268 | 13738 ft | 245 kts | 223° |
| 2026-05-07 16:50 | 43.20846 | -1.95836 | 13348 ft | 244 kts | 223° |
| 2026-05-07 16:50 | 43.19602 | -1.97380 | 12976 ft | 243 kts | 223° |
| 2026-05-07 16:50 | 43.18360 | -1.98924 | 12601 ft | 242 kts | 223° |
| 2026-05-07 16:51 | 43.17101 | -2.00483 | 12215 ft | 242 kts | 222° |
| 2026-05-07 16:51 | 43.15876 | -2.02008 | 11834 ft | 241 kts | 222° |
| 2026-05-07 16:51 | 43.14634 | -2.03543 | 11452 ft | 240 kts | 222° |
| 2026-05-07 16:51 | 43.13389 | -2.05085 | 11076 ft | 240 kts | 222° |
| 2026-05-07 16:52 | 43.12163 | -2.06602 | 10719 ft | 238 kts | 222° |
| 2026-05-07 16:52 | 43.10946 | -2.08117 | 10359 ft | 237 kts | 224° |
| 2026-05-07 16:52 | 43.10101 | -2.10005 | 9960 ft | 237 kts | 261° |
| 2026-05-07 16:52 | 43.10147 | -2.12235 | 9574 ft | 236 kts | 275° |
| 2026-05-07 16:53 | 43.10315 | -2.14488 | 9190 ft | 237 kts | 276° |
| 2026-05-07 16:53 | 43.10504 | -2.16701 | 8805 ft | 237 kts | 276° |
| 2026-05-07 16:53 | 43.10685 | -2.18931 | 8451 ft | 236 kts | 276° |
| 2026-05-07 16:53 | 43.10864 | -2.21166 | 8214 ft | 234 kts | 275° |
| 2026-05-07 16:54 | 43.11068 | -2.23520 | 8344 ft | 271 kts | 277° |
| 2026-05-07 16:54 | 43.11302 | -2.26151 | 8309 ft | 284 kts | 277° |
| 2026-05-07 16:54 | 43.11531 | -2.28867 | 8286 ft | 285 kts | 276° |
| 2026-05-07 16:54 | 43.11750 | -2.31561 | 8273 ft | 285 kts | 275° |
| 2026-05-07 16:55 | 43.11985 | -2.34250 | 8280 ft | 284 kts | 276° |
| 2026-05-07 16:55 | 43.12209 | -2.36853 | 8181 ft | 274 kts | 276° |
| 2026-05-07 16:55 | 43.12441 | -2.39551 | 8156 ft | 286 kts | 275° |
| 2026-05-07 16:55 | 43.12665 | -2.42222 | 7890 ft | 287 kts | 276° |
| 2026-05-07 16:56 | 43.12986 | -2.44913 | 7592 ft | 284 kts | 286° |
| 2026-05-07 16:56 | 43.13845 | -2.47329 | 7275 ft | 283 kts | 298° |
| 2026-05-07 16:56 | 43.15685 | -2.52098 | 6614 ft | 280 kts | 297° |
| 2026-05-07 16:57 | 43.16562 | -2.54449 | 6296 ft | 278 kts | 296° |
| 2026-05-07 16:57 | 43.17433 | -2.56814 | 5977 ft | 277 kts | 297° |
| 2026-05-07 16:57 | 43.18307 | -2.59136 | 5652 ft | 276 kts | 297° |
| 2026-05-07 16:57 | 43.19187 | -2.61471 | 5275 ft | 275 kts | 296° |
| 2026-05-07 16:58 | 43.20054 | -2.63806 | 4889 ft | 270 kts | 297° |
| 2026-05-07 16:58 | 43.20901 | -2.66082 | 4496 ft | 267 kts | 295° |
| 2026-05-07 16:58 | 43.21719 | -2.68338 | 4099 ft | 264 kts | 295° |
| 2026-05-07 16:58 | 43.22522 | -2.70551 | 3659 ft | 254 kts | 295° |
| 2026-05-07 16:59 | 43.23307 | -2.72648 | 3303 ft | 239 kts | 295° |
| 2026-05-07 16:59 | 43.24020 | -2.74609 | 2990 ft | 223 kts | 295° |
| 2026-05-07 16:59 | 43.24699 | -2.76407 | 2734 ft | 204 kts | 297° |
| 2026-05-07 16:59 | 43.25338 | -2.78126 | 2380 ft | 197 kts | 296° |
| 2026-05-07 17:00 | 43.25927 | -2.79711 | 2043 ft | 180 kts | 295° |
| 2026-05-07 17:00 | 43.26467 | -2.81163 | 1778 ft | 163 kts | 298° |
| 2026-05-07 17:00 | 43.26964 | -2.82506 | 1533 ft | 155 kts | 296° |
| 2026-05-07 17:00 | 43.27437 | -2.83825 | 1308 ft | 153 kts | 298° |
| 2026-05-07 17:01 | 43.27924 | -2.85119 | 1079 ft | 152 kts | 297° |
| 2026-05-07 17:01 | 43.28392 | -2.86407 | 853 ft | 151 kts | 297° |
| 2026-05-07 17:01 | 43.28869 | -2.87678 | 624 ft | 149 kts | 299° |
| 2026-05-07 17:01 | 43.29324 | -2.88934 | 422 ft | 147 kts | 300° |
| 2026-05-07 17:02 | 43.29789 | -2.90167 | 227 ft | 142 kts | 301° |
| 2026-05-07 17:02 | 43.30217 | -2.91345 | 149 ft | 125 kts | 298° |
| 2026-05-07 17:02 | 43.30462 | -2.92045 | 140 ft | 62 kts | 297° |
| 2026-05-07 17:02 | 43.30591 | -2.92402 | 131 ft | 29 kts | 310° |
| 2026-05-07 17:03 | 43.30732 | -2.92497 | 129 ft | 16 kts | 346° |
| 2026-05-07 17:03 | 43.30793 | -2.92424 | 131 ft | 13 kts | 107° |
| 2026-05-07 17:03 | 43.30756 | -2.92315 | 135 ft | 11 kts | 116° |
| 2026-05-07 17:03 | 43.30725 | -2.92230 | 137 ft | 8 kts | 117° |
| 2026-05-07 17:04 | 43.30701 | -2.92165 | 139 ft | 6 kts | 116° |
| 2026-05-07 17:04 | 43.30671 | -2.92082 | 142 ft | 14 kts | 117° |
| 2026-05-07 17:04 | 43.30612 | -2.91923 | 144 ft | 23 kts | 117° |
| 2026-05-07 17:04 | 43.30526 | -2.91689 | 149 ft | 29 kts | 119° |
| 2026-05-07 17:05 | 43.30426 | -2.91419 | 152 ft | 32 kts | 117° |
| 2026-05-07 17:05 | 43.30333 | -2.91169 | 154 ft | 21 kts | 117° |
| 2026-05-07 17:05 | 43.30330 | -2.91032 | 156 ft | 14 kts | 39° |
| 2026-05-07 17:05 | 43.30399 | -2.90957 | 159 ft | 11 kts | 66° |
| 2026-05-07 17:06 | 43.30416 | -2.90861 | 161 ft | 9 kts | 51° |
| 2026-05-07 17:06 | 43.30463 | -2.90822 | 163 ft | 5 kts | 26° |
| 2026-05-07 17:06 | 43.30486 | -2.90805 | 164 ft | 1 kts | 27° |
| 2026-05-07 17:06 | 43.30487 | -2.90804 | 164 ft | 0 kts | 27° |